createdAt,value
2017-08-02T00:00:31.190Z,0
2017-08-02T00:01:31.954Z,0
2017-08-02T00:02:31.930Z,0
2017-08-02T00:03:31.330Z,0
2017-08-02T00:04:32.328Z,0
2017-08-02T00:05:32.061Z,0
2017-08-02T00:06:32.362Z,0
2017-08-02T00:07:32.404Z,0
2017-08-02T00:08:32.434Z,0
2017-08-02T00:09:32.570Z,0
2017-08-02T00:10:32.221Z,0
2017-08-02T00:11:32.263Z,0
2017-08-02T00:12:32.617Z,0
2017-08-02T00:13:32.333Z,0
2017-08-02T00:14:33.300Z,0
2017-08-02T00:15:33.335Z,0
2017-08-02T00:16:32.738Z,0
2017-08-02T00:17:33.420Z,0
2017-08-02T00:18:33.428Z,0
2017-08-02T00:19:33.872Z,0
2017-08-02T00:20:33.506Z,0
2017-08-02T00:21:33.829Z,0
2017-08-02T00:22:34.172Z,0
2017-08-02T00:23:34.210Z,0
2017-08-02T00:24:34.041Z,0
2017-08-02T00:25:34.635Z,0
2017-08-02T00:26:34.673Z,0
2017-08-02T00:27:34.408Z,0
2017-08-02T00:28:34.757Z,0
2017-08-02T00:29:34.503Z,0
2017-08-02T00:30:34.506Z,0
2017-08-02T00:31:34.817Z,0
2017-08-02T00:32:35.152Z,0
2017-08-02T00:33:35.190Z,0
2017-08-02T00:34:35.241Z,0
2017-08-02T00:35:34.955Z,0
2017-08-02T00:36:35.325Z,0
2017-08-02T00:37:35.345Z,0
2017-08-02T00:38:35.397Z,0
2017-08-02T00:39:35.412Z,0
2017-08-02T00:40:35.144Z,0
2017-08-02T00:41:35.488Z,0
2017-08-02T00:42:35.528Z,0
2017-08-02T00:43:35.572Z,0
2017-08-02T00:44:35.602Z,0
2017-08-02T00:45:35.645Z,0
2017-08-02T00:46:35.670Z,0
2017-08-02T00:47:35.737Z,0
2017-08-02T00:48:35.744Z,0
2017-08-02T00:49:35.803Z,0
2017-08-02T00:50:35.783Z,0
2017-08-02T00:51:35.857Z,0
2017-08-02T00:52:35.877Z,0
2017-08-02T00:53:36.193Z,0
2017-08-02T00:54:36.555Z,0
2017-08-02T00:55:36.295Z,0
2017-08-02T00:56:36.633Z,0
2017-08-02T00:57:36.673Z,0
2017-08-02T00:58:36.729Z,0
2017-08-02T00:59:36.131Z,0
2017-08-02T01:00:37.100Z,0
2017-08-02T01:01:37.147Z,0
2017-08-02T01:02:36.865Z,0
2017-08-02T01:03:36.864Z,0
2017-08-02T01:04:36.924Z,0
2017-08-02T01:05:36.938Z,0
2017-08-02T01:06:36.972Z,0
2017-08-02T01:07:37.335Z,0
2017-08-02T01:08:37.372Z,0
2017-08-02T01:09:37.406Z,0
2017-08-02T01:10:37.123Z,0
2017-08-02T01:11:37.505Z,0
2017-08-02T01:12:37.517Z,0
2017-08-02T01:13:37.611Z,0
2017-08-02T01:14:36.964Z,0
2017-08-02T01:15:38.024Z,0
2017-08-02T01:16:37.433Z,0
2017-08-02T01:17:38.409Z,0
2017-08-02T01:18:38.440Z,0
2017-08-02T01:19:38.460Z,0
2017-08-02T01:20:38.495Z,0
2017-08-02T01:21:38.534Z,0
2017-08-02T01:22:38.569Z,0
2017-08-02T01:23:38.268Z,0
2017-08-02T01:24:38.026Z,0
2017-08-02T01:25:38.965Z,0
2017-08-02T01:26:39.004Z,0
2017-08-02T01:27:39.065Z,0
2017-08-02T01:28:39.080Z,0
2017-08-02T01:29:39.105Z,0
2017-08-02T01:30:39.148Z,0
2017-08-02T01:31:38.896Z,0
2017-08-02T01:32:38.924Z,0
2017-08-02T01:33:39.870Z,0
2017-08-02T01:34:39.907Z,0
2017-08-02T01:35:39.631Z,0
2017-08-02T01:36:39.673Z,0
2017-08-02T01:37:40.008Z,0
2017-08-02T01:38:39.764Z,0
2017-08-02T01:39:39.779Z,0
2017-08-02T01:40:40.136Z,0
2017-08-02T01:41:39.896Z,0
2017-08-02T01:42:40.216Z,0
2017-08-02T01:43:39.976Z,0
2017-08-02T01:44:40.608Z,0
2017-08-02T01:45:40.657Z,0
2017-08-02T01:46:40.078Z,0
2017-08-02T01:47:40.408Z,0
2017-08-02T01:48:41.042Z,0
2017-08-02T01:49:41.099Z,0
2017-08-02T01:50:41.133Z,0
2017-08-02T01:51:41.787Z,0
2017-08-02T01:52:41.537Z,0
2017-08-02T01:53:41.594Z,0
2017-08-02T01:54:41.606Z,0
2017-08-02T01:55:41.607Z,0
2017-08-02T01:56:41.968Z,0
2017-08-02T01:57:41.712Z,0
2017-08-02T01:58:42.045Z,0
2017-08-02T01:59:42.087Z,0
2017-08-02T02:00:42.219Z,0
2017-08-02T02:01:42.228Z,0
2017-08-02T02:02:42.235Z,0
2017-08-02T02:03:42.231Z,0
2017-08-02T02:04:42.263Z,0
2017-08-02T02:05:42.336Z,0
2017-08-02T02:06:42.360Z,0
2017-08-02T02:07:42.083Z,0
2017-08-02T02:08:42.407Z,0
2017-08-02T02:09:42.470Z,0
2017-08-02T02:10:42.157Z,0
2017-08-02T02:11:42.509Z,0
2017-08-02T02:12:42.868Z,0
2017-08-02T02:13:42.608Z,0
2017-08-02T02:14:42.926Z,0
2017-08-02T02:15:42.656Z,0
2017-08-02T02:16:42.694Z,0
2017-08-02T02:17:43.043Z,0
2017-08-02T02:18:43.071Z,0
2017-08-02T02:19:43.101Z,0
2017-08-02T02:20:43.138Z,0
2017-08-02T02:21:42.901Z,0
2017-08-02T02:22:43.228Z,0
2017-08-02T02:23:43.249Z,0
2017-08-02T02:24:43.299Z,0
2017-08-02T02:25:43.300Z,0
2017-08-02T02:26:43.381Z,0
2017-08-02T02:27:43.994Z,0
2017-08-02T02:28:44.029Z,0
2017-08-02T02:29:44.100Z,0
2017-08-02T02:30:44.098Z,0
2017-08-02T02:31:44.139Z,0
2017-08-02T02:32:44.168Z,0
2017-08-02T02:33:44.214Z,0
2017-08-02T02:34:43.925Z,0
2017-08-02T02:35:44.281Z,0
2017-08-02T02:36:44.334Z,0
2017-08-02T02:37:44.630Z,0
2017-08-02T02:38:44.346Z,0
2017-08-02T02:39:44.683Z,0
2017-08-02T02:40:44.697Z,0
2017-08-02T02:41:44.766Z,0
2017-08-02T02:42:44.791Z,0
2017-08-02T02:43:44.803Z,0
2017-08-02T02:44:44.804Z,0
2017-08-02T02:45:45.492Z,0
2017-08-02T02:46:45.502Z,0
2017-08-02T02:47:45.555Z,0
2017-08-02T02:48:45.271Z,0
2017-08-02T02:49:45.600Z,0
2017-08-02T02:50:45.661Z,0
2017-08-02T02:51:45.379Z,0
2017-08-02T02:52:45.419Z,0
2017-08-02T02:53:45.121Z,0
2017-08-02T02:54:45.789Z,0
2017-08-02T02:55:45.813Z,4
2017-08-02T02:56:45.855Z,4
2017-08-02T02:57:45.911Z,4
2017-08-02T02:58:46.237Z,4
2017-08-02T02:59:45.948Z,4
2017-08-02T03:00:46.030Z,4
2017-08-02T03:01:46.434Z,4
2017-08-02T03:02:46.382Z,4
2017-08-02T03:03:46.417Z,8
2017-08-02T03:04:46.160Z,8
2017-08-02T03:05:45.890Z,8
2017-08-02T03:06:46.541Z,12
2017-08-02T03:07:46.590Z,12
2017-08-02T03:08:46.606Z,12
2017-08-02T03:09:46.668Z,12
2017-08-02T03:10:46.972Z,16
2017-08-02T03:11:47.330Z,16
2017-08-02T03:12:46.722Z,20
2017-08-02T03:13:47.373Z,24
2017-08-02T03:14:47.415Z,24
2017-08-02T03:15:47.463Z,32
2017-08-02T03:16:47.498Z,32
2017-08-02T03:17:47.832Z,40
2017-08-02T03:18:47.589Z,44
2017-08-02T03:19:47.600Z,48
2017-08-02T03:20:48.262Z,52
2017-08-02T03:21:48.295Z,56
2017-08-02T03:22:48.324Z,64
2017-08-02T03:23:48.364Z,68
2017-08-02T03:24:48.679Z,76
2017-08-02T03:25:49.096Z,80
2017-08-02T03:26:48.766Z,92
2017-08-02T03:27:48.768Z,96
2017-08-02T03:28:49.189Z,104
2017-08-02T03:29:48.831Z,112
2017-08-02T03:30:49.216Z,120
2017-08-02T03:31:49.244Z,132
2017-08-02T03:32:49.281Z,140
2017-08-02T03:33:49.014Z,152
2017-08-02T03:34:49.356Z,160
2017-08-02T03:35:49.096Z,172
2017-08-02T03:36:49.707Z,188
2017-08-02T03:37:49.764Z,200
2017-08-02T03:38:49.467Z,212
2017-08-02T03:39:49.519Z,228
2017-08-02T03:40:49.565Z,240
2017-08-02T03:41:49.882Z,256
2017-08-02T03:42:50.521Z,276
2017-08-02T03:43:49.947Z,288
2017-08-02T03:44:50.596Z,312
2017-08-02T03:45:50.958Z,336
2017-08-02T03:46:50.997Z,364
2017-08-02T03:47:51.013Z,396
2017-08-02T03:48:51.087Z,436
2017-08-02T03:49:50.794Z,468
2017-08-02T03:50:50.815Z,500
2017-08-02T03:51:50.850Z,532
2017-08-02T03:52:51.194Z,564
2017-08-02T03:53:51.230Z,600
2017-08-02T03:54:51.263Z,640
2017-08-02T03:55:51.297Z,688
2017-08-02T03:56:50.726Z,728
2017-08-02T03:57:51.391Z,764
2017-08-02T03:58:51.399Z,800
2017-08-02T03:59:51.120Z,832
2017-08-02T04:00:51.222Z,856
2017-08-02T04:01:51.710Z,880
2017-08-02T04:02:51.616Z,916
2017-08-02T04:03:51.651Z,968
2017-08-02T04:04:51.679Z,1040
2017-08-02T04:05:51.726Z,1124
2017-08-02T04:06:51.759Z,1204
2017-08-02T04:07:51.789Z,1272
2017-08-02T04:08:51.524Z,1312
2017-08-02T04:09:51.555Z,1412
2017-08-02T04:10:51.264Z,1552
2017-08-02T04:11:52.012Z,1632
2017-08-02T04:12:52.354Z,1560
2017-08-02T04:13:51.768Z,1452
2017-08-02T04:14:52.163Z,1304
2017-08-02T04:15:52.222Z,1156
2017-08-02T04:16:52.236Z,1112
2017-08-02T04:17:52.598Z,1084
2017-08-02T04:18:52.644Z,1096
2017-08-02T04:19:52.361Z,1096
2017-08-02T04:20:52.396Z,1112
2017-08-02T04:21:52.518Z,1120
2017-08-02T04:22:52.941Z,1172
2017-08-02T04:23:53.999Z,1148
2017-08-02T04:24:54.097Z,1232
2017-08-02T04:25:54.136Z,1356
2017-08-02T04:26:53.841Z,1524
2017-08-02T04:27:54.594Z,1628
2017-08-02T04:28:54.328Z,1496
2017-08-02T04:29:54.347Z,1380
2017-08-02T04:30:54.692Z,1232
2017-08-02T04:31:54.415Z,1116
2017-08-02T04:32:54.765Z,1024
2017-08-02T04:33:54.477Z,892
2017-08-02T04:34:54.843Z,840
2017-08-02T04:35:54.558Z,820
2017-08-02T04:36:54.915Z,840
2017-08-02T04:37:54.647Z,836
2017-08-02T04:38:55.073Z,796
2017-08-02T04:39:55.424Z,772
2017-08-02T04:40:55.453Z,752
2017-08-02T04:41:55.186Z,776
2017-08-02T04:42:55.220Z,836
2017-08-02T04:43:55.249Z,868
2017-08-02T04:44:55.298Z,892
2017-08-02T04:45:55.649Z,912
2017-08-02T04:46:55.365Z,980
2017-08-02T04:47:55.819Z,1004
2017-08-02T04:48:56.251Z,1040
2017-08-02T04:49:56.683Z,1064
2017-08-02T04:50:57.031Z,1180
2017-08-02T04:51:56.765Z,1408
2017-08-02T04:52:57.095Z,1588
2017-08-02T04:53:56.834Z,1704
2017-08-02T04:54:57.166Z,1776
2017-08-02T04:55:56.904Z,1848
2017-08-02T04:56:57.320Z,2076
2017-08-02T04:57:57.350Z,2312
2017-08-02T04:58:57.735Z,2656
2017-08-02T04:59:57.438Z,3032
2017-08-02T05:00:57.480Z,3240
2017-08-02T05:01:58.272Z,3628
2017-08-02T05:02:57.921Z,4140
2017-08-02T05:03:57.902Z,4256
2017-08-02T05:04:57.950Z,4332
2017-08-02T05:05:57.986Z,4276
2017-08-02T05:06:58.016Z,4160
2017-08-02T05:07:57.411Z,4376
2017-08-02T05:08:58.155Z,4820
2017-08-02T05:09:58.253Z,4884
2017-08-02T05:10:58.625Z,4908
2017-08-02T05:11:58.655Z,4900
2017-08-02T05:12:59.086Z,4768
2017-08-02T05:13:58.462Z,4592
2017-08-02T05:14:59.512Z,4212
2017-08-02T05:15:59.568Z,4656
2017-08-02T05:16:59.281Z,5256
2017-08-02T05:17:59.323Z,5344
2017-08-02T05:18:59.671Z,5484
2017-08-02T05:19:59.670Z,5536
2017-08-02T05:20:59.746Z,5348
2017-08-02T05:21:59.832Z,5260
2017-08-02T05:23:00.187Z,5068
2017-08-02T05:24:00.426Z,6008
2017-08-02T05:25:00.442Z,5728
2017-08-02T05:25:59.741Z,5764
2017-08-02T05:27:00.497Z,6432
2017-08-02T05:28:00.525Z,6660
2017-08-02T05:29:00.614Z,6432
2017-08-02T05:30:00.866Z,6596
2017-08-02T05:31:01.007Z,6916
2017-08-02T05:32:00.693Z,7140
2017-08-02T05:33:01.077Z,7348
2017-08-02T05:34:00.837Z,7332
2017-08-02T05:35:00.773Z,7316
2017-08-02T05:36:00.926Z,6608
2017-08-02T05:37:00.544Z,6480
2017-08-02T05:38:00.953Z,6012
2017-08-02T05:39:01.700Z,6544
2017-08-02T05:40:01.748Z,6428
2017-08-02T05:41:01.552Z,7104
2017-08-02T05:42:01.826Z,7536
2017-08-02T05:43:01.525Z,7548
2017-08-02T05:44:01.268Z,7920
2017-08-02T05:45:02.068Z,8736
2017-08-02T05:46:01.770Z,9072
2017-08-02T05:47:01.794Z,9120
2017-08-02T05:48:01.845Z,9232
2017-08-02T05:49:01.880Z,9444
2017-08-02T05:50:02.017Z,9188
2017-08-02T05:51:02.367Z,8472
2017-08-02T05:52:02.404Z,8064
2017-08-02T05:53:02.111Z,7612
2017-08-02T05:54:02.522Z,8912
2017-08-02T05:55:02.306Z,8432
2017-08-02T05:56:01.928Z,7676
2017-08-02T05:57:02.720Z,8168
2017-08-02T05:58:02.742Z,8640
2017-08-02T05:59:02.772Z,8088
2017-08-02T06:00:03.375Z,8348
2017-08-02T06:01:03.174Z,8980
2017-08-02T06:02:03.341Z,9196
2017-08-02T06:03:02.931Z,10156
2017-08-02T06:04:03.376Z,9880
2017-08-02T06:05:04.454Z,10592
2017-08-02T06:06:03.851Z,11048
2017-08-02T06:07:04.183Z,12500
2017-08-02T06:08:04.220Z,11768
2017-08-02T06:09:04.272Z,11020
2017-08-02T06:10:04.562Z,11276
2017-08-02T06:11:04.341Z,11064
2017-08-02T06:12:03.751Z,12480
2017-08-02T06:13:04.498Z,10788
2017-08-02T06:14:04.544Z,8292
2017-08-02T06:15:04.794Z,8168
2017-08-02T06:16:04.945Z,11008
2017-08-02T06:17:04.973Z,9784
2017-08-02T06:18:05.007Z,8216
2017-08-02T06:19:04.731Z,7856
2017-08-02T06:20:04.506Z,8036
2017-08-02T06:21:04.633Z,9008
2017-08-02T06:22:05.302Z,11420
2017-08-02T06:23:05.819Z,12388
2017-08-02T06:24:06.160Z,13900
2017-08-02T06:25:06.179Z,15072
2017-08-02T06:26:05.894Z,15968
2017-08-02T06:27:06.250Z,16416
2017-08-02T06:28:05.988Z,15328
2017-08-02T06:29:06.400Z,12748
2017-08-02T06:30:06.391Z,12192
2017-08-02T06:31:06.479Z,10184
2017-08-02T06:32:05.835Z,8576
2017-08-02T06:33:06.886Z,7652
2017-08-02T06:34:06.619Z,7172
2017-08-02T06:35:07.141Z,6908
2017-08-02T06:36:07.471Z,6876
2017-08-02T06:37:07.218Z,6992
2017-08-02T06:38:07.525Z,6960
2017-08-02T06:39:06.994Z,6696
2017-08-02T06:40:07.781Z,6380
2017-08-02T06:41:08.607Z,6096
2017-08-02T06:42:08.344Z,5876
2017-08-02T06:43:08.346Z,5680
2017-08-02T06:44:08.531Z,5560
2017-08-02T06:45:08.503Z,5448
2017-08-02T06:46:08.477Z,5372
2017-08-02T06:47:08.873Z,5408
2017-08-02T06:48:08.566Z,5460
2017-08-02T06:49:08.596Z,5548
2017-08-02T06:50:08.995Z,5664
2017-08-02T06:51:09.268Z,5708
2017-08-02T06:52:09.280Z,5668
2017-08-02T06:53:08.755Z,5636
2017-08-02T06:54:09.111Z,5744
2017-08-02T06:55:09.196Z,5916
2017-08-02T06:56:08.925Z,6132
2017-08-02T06:57:08.953Z,6456
2017-08-02T06:58:09.014Z,6976
2017-08-02T06:59:09.736Z,7448
2017-08-02T07:00:09.475Z,7608
2017-08-02T07:01:09.825Z,7716
2017-08-02T07:02:09.969Z,8028
2017-08-02T07:03:09.909Z,7716
2017-08-02T07:04:09.937Z,7832
2017-08-02T07:05:09.673Z,8044
2017-08-02T07:06:10.026Z,8224
2017-08-02T07:07:09.122Z,8132
2017-08-02T07:08:10.207Z,8216
2017-08-02T07:09:09.917Z,8596
2017-08-02T07:10:10.261Z,8980
2017-08-02T07:11:10.303Z,8944
2017-08-02T07:12:10.345Z,9004
2017-08-02T07:13:09.757Z,9108
2017-08-02T07:14:10.187Z,9988
2017-08-02T07:15:10.366Z,8512
2017-08-02T07:16:10.280Z,8628
2017-08-02T07:17:10.293Z,8656
2017-08-02T07:18:10.346Z,9516
2017-08-02T07:19:11.103Z,11288
2017-08-02T07:20:11.306Z,12728
2017-08-02T07:21:11.185Z,13032
2017-08-02T07:22:10.612Z,11940
2017-08-02T07:23:11.137Z,11904
2017-08-02T07:24:10.502Z,12468
2017-08-02T07:25:11.287Z,13572
2017-08-02T07:26:11.351Z,14720
2017-08-02T07:27:11.028Z,13604
2017-08-02T07:28:12.179Z,13740
2017-08-02T07:29:11.580Z,14364
2017-08-02T07:30:12.198Z,16864
2017-08-02T07:31:12.105Z,16512
2017-08-02T07:32:11.800Z,18464
2017-08-02T07:33:12.527Z,16832
2017-08-02T07:34:12.523Z,18176
2017-08-02T07:35:12.563Z,17088
2017-08-02T07:36:12.611Z,21216
2017-08-02T07:37:12.445Z,14548
2017-08-02T07:38:12.692Z,15744
2017-08-02T07:39:12.417Z,16768
2017-08-02T07:40:12.838Z,15808
2017-08-02T07:41:13.220Z,16192
2017-08-02T07:42:13.045Z,27136
2017-08-02T07:43:12.937Z,22176
2017-08-02T07:44:13.321Z,25184
2017-08-02T07:45:13.351Z,15424
2017-08-02T07:46:13.121Z,16896
2017-08-02T07:47:13.616Z,22560
2017-08-02T07:48:14.099Z,22144
2017-08-02T07:49:14.411Z,16352
2017-08-02T07:50:14.464Z,15424
2017-08-02T07:51:14.489Z,18784
2017-08-02T07:52:14.057Z,30272
2017-08-02T07:53:14.507Z,21696
2017-08-02T07:54:14.858Z,22976
2017-08-02T07:55:15.624Z,41888
2017-08-02T07:56:15.203Z,27840
2017-08-02T07:57:15.279Z,26944
2017-08-02T07:58:15.032Z,16480
2017-08-02T07:59:14.752Z,16416
2017-08-02T08:00:14.828Z,18784
2017-08-02T08:01:15.428Z,29696
2017-08-02T08:02:15.291Z,41632
2017-08-02T08:03:15.248Z,33312
2017-08-02T08:04:15.302Z,40640
2017-08-02T08:05:15.354Z,36064
2017-08-02T08:06:15.038Z,36416
2017-08-02T08:07:15.084Z,29888
2017-08-02T08:08:15.151Z,38624
2017-08-02T08:09:15.501Z,29568
2017-08-02T08:10:15.545Z,45664
2017-08-02T08:11:15.272Z,45408
2017-08-02T08:12:15.334Z,30240
2017-08-02T08:13:15.755Z,23104
2017-08-02T08:14:16.510Z,14776
2017-08-02T08:15:16.581Z,9660
2017-08-02T08:16:16.672Z,7048
2017-08-02T08:17:16.670Z,6296
2017-08-02T08:18:16.694Z,6856
2017-08-02T08:19:16.747Z,7100
2017-08-02T08:20:16.858Z,8016
2017-08-02T08:21:16.837Z,8260
2017-08-02T08:22:16.993Z,8008
2017-08-02T08:23:16.922Z,7924
2017-08-02T08:24:17.476Z,9732
2017-08-02T08:25:16.728Z,7216
2017-08-02T08:26:17.478Z,22080
2017-08-02T08:27:17.371Z,11224
2017-08-02T08:28:17.266Z,7152
2017-08-02T08:29:17.321Z,5652
2017-08-02T08:30:17.697Z,4684
2017-08-02T08:31:17.685Z,5084
2017-08-02T08:32:17.543Z,5232
2017-08-02T08:33:17.800Z,4892
2017-08-02T08:34:17.828Z,5320
2017-08-02T08:35:17.878Z,5188
2017-08-02T08:36:17.599Z,4760
2017-08-02T08:37:17.638Z,4684
2017-08-02T08:38:18.034Z,5288
2017-08-02T08:39:18.051Z,6524
2017-08-02T08:40:17.802Z,6640
2017-08-02T08:41:18.130Z,9320
2017-08-02T08:42:18.209Z,8572
2017-08-02T08:43:18.197Z,9000
2017-08-02T08:44:17.935Z,7844
2017-08-02T08:45:19.064Z,7536
2017-08-02T08:46:18.386Z,8896
2017-08-02T08:47:18.734Z,11084
2017-08-02T08:48:19.185Z,13568
2017-08-02T08:49:18.910Z,14976
2017-08-02T08:50:19.263Z,22240
2017-08-02T08:51:18.991Z,18016
2017-08-02T08:52:19.332Z,18880
2017-08-02T08:53:19.383Z,18560
2017-08-02T08:54:19.423Z,17888
2017-08-02T08:55:19.156Z,24448
2017-08-02T08:56:19.507Z,24896
2017-08-02T08:57:19.564Z,24864
2017-08-02T08:58:19.595Z,22432
2017-08-02T08:59:19.631Z,21504
2017-08-02T09:00:19.666Z,21888
2017-08-02T09:01:19.207Z,21792
2017-08-02T09:02:19.332Z,21728
2017-08-02T09:03:20.106Z,20672
2017-08-02T09:04:20.564Z,21216
2017-08-02T09:05:20.588Z,21312
2017-08-02T09:06:20.634Z,21088
2017-08-02T09:07:21.046Z,22080
2017-08-02T09:08:21.411Z,24096
2017-08-02T09:09:21.123Z,24864
2017-08-02T09:10:21.546Z,23936
2017-08-02T09:11:21.267Z,23424
2017-08-02T09:12:21.675Z,23584
2017-08-02T09:13:22.326Z,20864
2017-08-02T09:14:21.787Z,19136
2017-08-02T09:15:21.598Z,17056
2017-08-02T09:16:22.380Z,18720
2017-08-02T09:17:22.815Z,17632
2017-08-02T09:18:23.562Z,16384
2017-08-02T09:19:23.622Z,14216
2017-08-02T09:20:23.650Z,13508
2017-08-02T09:21:24.082Z,14208
2017-08-02T09:22:23.875Z,16896
2017-08-02T09:23:24.555Z,16352
2017-08-02T09:24:24.661Z,15648
2017-08-02T09:25:24.716Z,13620
2017-08-02T09:26:24.814Z,13548
2017-08-02T09:27:24.799Z,15968
2017-08-02T09:28:24.836Z,20160
2017-08-02T09:29:24.594Z,20896
2017-08-02T09:30:25.059Z,18656
2017-08-02T09:31:24.754Z,18240
2017-08-02T09:32:25.012Z,18528
2017-08-02T09:33:25.201Z,17792
2017-08-02T09:34:25.660Z,20800
2017-08-02T09:35:26.205Z,22880
2017-08-02T09:36:25.877Z,19104
2017-08-02T09:37:26.636Z,23648
2017-08-02T09:38:26.370Z,19712
2017-08-02T09:39:26.818Z,26752
2017-08-02T09:40:27.169Z,25664
2017-08-02T09:41:26.973Z,24352
2017-08-02T09:42:26.946Z,25504
2017-08-02T09:43:27.377Z,24800
2017-08-02T09:44:27.377Z,23936
2017-08-02T09:45:27.090Z,23072
2017-08-02T09:46:27.227Z,22144
2017-08-02T09:47:28.317Z,23104
2017-08-02T09:48:28.359Z,23552
2017-08-02T09:49:28.124Z,19808
2017-08-02T09:50:28.179Z,21248
2017-08-02T09:51:28.165Z,22976
2017-08-02T09:52:28.315Z,18528
2017-08-02T09:53:28.357Z,20256
2017-08-02T09:54:28.435Z,19168
2017-08-02T09:55:28.585Z,20032
2017-08-02T09:56:29.348Z,16672
2017-08-02T09:57:29.131Z,20000
2017-08-02T09:58:29.561Z,16768
2017-08-02T09:59:29.869Z,18208
2017-08-02T10:00:29.653Z,23712
2017-08-02T10:01:29.447Z,23296
2017-08-02T10:02:29.922Z,22016
2017-08-02T10:03:29.006Z,20384
2017-08-02T10:04:29.456Z,12220
2017-08-02T10:05:30.195Z,11280
2017-08-02T10:06:29.850Z,13444
2017-08-02T10:07:30.237Z,20000
2017-08-02T10:08:29.941Z,23232
2017-08-02T10:09:30.985Z,20384
2017-08-02T10:10:30.426Z,22304
2017-08-02T10:11:30.174Z,23104
2017-08-02T10:12:30.948Z,22912
2017-08-02T10:13:31.013Z,22944
2017-08-02T10:14:30.405Z,22656
2017-08-02T10:15:30.540Z,24064
2017-08-02T10:16:31.293Z,21792
2017-08-02T10:17:31.719Z,24032
2017-08-02T10:18:31.467Z,23488
2017-08-02T10:19:31.813Z,23424
2017-08-02T10:20:31.554Z,20352
2017-08-02T10:21:31.588Z,23040
2017-08-02T10:22:31.682Z,24128
2017-08-02T10:23:31.814Z,24352
2017-08-02T10:24:32.570Z,23264
2017-08-02T10:25:32.616Z,21536
2017-08-02T10:26:32.350Z,20704
2017-08-02T10:27:32.397Z,18400
2017-08-02T10:28:32.756Z,15712
2017-08-02T10:29:32.806Z,14748
2017-08-02T10:30:32.845Z,11072
2017-08-02T10:31:32.279Z,15232
2017-08-02T10:32:33.346Z,15168
2017-08-02T10:33:33.389Z,14344
2017-08-02T10:34:33.438Z,16064
2017-08-02T10:35:33.481Z,22816
2017-08-02T10:36:33.534Z,24320
2017-08-02T10:37:33.585Z,24128
2017-08-02T10:38:33.613Z,25920
2017-08-02T10:39:33.358Z,23840
2017-08-02T10:40:33.776Z,13164
2017-08-02T10:41:33.510Z,10992
2017-08-02T10:42:33.946Z,13132
2017-08-02T10:43:34.308Z,9548
2017-08-02T10:44:34.040Z,7924
2017-08-02T10:45:34.126Z,7860
2017-08-02T10:46:34.501Z,8124
2017-08-02T10:47:34.245Z,9704
2017-08-02T10:48:34.607Z,14048
2017-08-02T10:49:34.329Z,11520
2017-08-02T10:50:34.677Z,7768
2017-08-02T10:51:34.718Z,8088
2017-08-02T10:52:34.467Z,6524
2017-08-02T10:53:34.829Z,4960
2017-08-02T10:54:33.900Z,5508
2017-08-02T10:55:34.585Z,5608
2017-08-02T10:56:34.644Z,5680
2017-08-02T10:57:34.985Z,7072
2017-08-02T10:58:34.707Z,8040
2017-08-02T10:59:35.170Z,7448
2017-08-02T11:00:35.505Z,7676
2017-08-02T11:01:35.666Z,6352
2017-08-02T11:02:35.590Z,5192
2017-08-02T11:03:35.634Z,5904
2017-08-02T11:04:35.678Z,6228
2017-08-02T11:05:35.409Z,6584
2017-08-02T11:06:35.457Z,7368
2017-08-02T11:07:36.179Z,9432
2017-08-02T11:08:36.224Z,12952
2017-08-02T11:09:36.258Z,13884
2017-08-02T11:10:35.683Z,12016
2017-08-02T11:11:36.765Z,11388
2017-08-02T11:12:36.485Z,13404
2017-08-02T11:13:35.889Z,13840
2017-08-02T11:14:36.241Z,13912
2017-08-02T11:15:36.993Z,14352
2017-08-02T11:16:36.721Z,13312
2017-08-02T11:17:37.081Z,13264
2017-08-02T11:18:36.478Z,13096
2017-08-02T11:19:37.246Z,12828
2017-08-02T11:20:37.591Z,14032
2017-08-02T11:21:37.640Z,15200
2017-08-02T11:22:37.363Z,15544
2017-08-02T11:23:37.714Z,15808
2017-08-02T11:24:37.772Z,14388
2017-08-02T11:25:37.836Z,13904
2017-08-02T11:26:37.575Z,12512
2017-08-02T11:27:37.290Z,10544
2017-08-02T11:28:38.073Z,10292
2017-08-02T11:29:38.367Z,10824
2017-08-02T11:30:38.131Z,10844
2017-08-02T11:31:38.184Z,12232
2017-08-02T11:32:37.905Z,12908
2017-08-02T11:33:38.667Z,12844
2017-08-02T11:34:38.708Z,12836
2017-08-02T11:35:38.742Z,13084
2017-08-02T11:36:38.789Z,14152
2017-08-02T11:37:38.198Z,13228
2017-08-02T11:38:39.310Z,12208
2017-08-02T11:39:39.435Z,12444
2017-08-02T11:40:39.354Z,11156
2017-08-02T11:41:39.111Z,9652
2017-08-02T11:42:39.180Z,11664
2017-08-02T11:43:39.596Z,12708
2017-08-02T11:44:40.216Z,14200
2017-08-02T11:45:40.047Z,15872
2017-08-02T11:46:39.737Z,14400
2017-08-02T11:47:41.037Z,12124
2017-08-02T11:48:40.813Z,12388
2017-08-02T11:49:41.105Z,12528
2017-08-02T11:50:41.126Z,10636
2017-08-02T11:51:40.900Z,9640
2017-08-02T11:52:40.632Z,9552
2017-08-02T11:53:40.768Z,9304
2017-08-02T11:54:41.115Z,8796
2017-08-02T11:55:40.879Z,8096
2017-08-02T11:56:41.203Z,7792
2017-08-02T11:57:41.240Z,6892
2017-08-02T11:58:40.970Z,7152
2017-08-02T11:59:41.731Z,7200
2017-08-02T12:00:41.454Z,7160
2017-08-02T12:01:41.408Z,7196
2017-08-02T12:02:42.477Z,8056
2017-08-02T12:03:42.510Z,8444
2017-08-02T12:04:42.637Z,8672
2017-08-02T12:05:42.681Z,8432
2017-08-02T12:06:42.701Z,7724
2017-08-02T12:07:43.465Z,8488
2017-08-02T12:08:43.511Z,8676
2017-08-02T12:09:43.545Z,8416
2017-08-02T12:10:43.584Z,8352
2017-08-02T12:11:43.635Z,8840
2017-08-02T12:12:43.369Z,8212
2017-08-02T12:13:43.709Z,9044
2017-08-02T12:14:43.439Z,9224
2017-08-02T12:15:44.229Z,9028
2017-08-02T12:16:43.956Z,8956
2017-08-02T12:17:44.313Z,8392
2017-08-02T12:18:44.032Z,8056
2017-08-02T12:19:44.394Z,8660
2017-08-02T12:20:44.430Z,10076
2017-08-02T12:21:44.473Z,10896
2017-08-02T12:22:44.199Z,11396
2017-08-02T12:23:44.549Z,11580
2017-08-02T12:24:44.272Z,11312
2017-08-02T12:25:44.698Z,10872
2017-08-02T12:26:44.404Z,11104
2017-08-02T12:27:44.480Z,12060
2017-08-02T12:28:44.814Z,11908
2017-08-02T12:29:44.867Z,11664
2017-08-02T12:30:44.599Z,11408
2017-08-02T12:31:44.954Z,11388
2017-08-02T12:32:44.656Z,11336
2017-08-02T12:33:45.024Z,11696
2017-08-02T12:34:45.072Z,11788
2017-08-02T12:35:44.799Z,11212
2017-08-02T12:36:45.167Z,10956
2017-08-02T12:37:45.232Z,10264
2017-08-02T12:38:45.225Z,10092
2017-08-02T12:39:44.963Z,10312
2017-08-02T12:40:45.394Z,10008
2017-08-02T12:41:45.832Z,9648
2017-08-02T12:42:46.255Z,9308
2017-08-02T12:43:46.298Z,9044
2017-08-02T12:44:46.317Z,8572
2017-08-02T12:45:46.443Z,8516
2017-08-02T12:46:46.882Z,8860
2017-08-02T12:47:47.242Z,9512
2017-08-02T12:48:47.265Z,10128
2017-08-02T12:49:47.388Z,10980
2017-08-02T12:50:47.486Z,11160
2017-08-02T12:51:48.234Z,11408
2017-08-02T12:52:47.987Z,11372
2017-08-02T12:53:48.722Z,11064
2017-08-02T12:54:48.428Z,10152
2017-08-02T12:55:48.510Z,9708
2017-08-02T12:56:48.868Z,9548
2017-08-02T12:57:48.910Z,9420
2017-08-02T12:58:48.967Z,9324
2017-08-02T12:59:48.994Z,9400
2017-08-02T13:00:48.737Z,9604
2017-08-02T13:01:50.158Z,10008
2017-08-02T13:02:49.853Z,10108
2017-08-02T13:03:49.559Z,10080
2017-08-02T13:04:50.297Z,9700
2017-08-02T13:05:50.339Z,9180
2017-08-02T13:06:50.380Z,9176
2017-08-02T13:07:50.455Z,9148
2017-08-02T13:08:50.234Z,8724
2017-08-02T13:09:50.604Z,8300
2017-08-02T13:10:50.339Z,8052
2017-08-02T13:11:51.102Z,8216
2017-08-02T13:12:51.152Z,8684
2017-08-02T13:13:50.879Z,9512
2017-08-02T13:14:51.138Z,10096
2017-08-02T13:15:51.272Z,10240
2017-08-02T13:16:51.697Z,9992
2017-08-02T13:17:51.752Z,9652
2017-08-02T13:18:51.465Z,9600
2017-08-02T13:19:51.568Z,9568
2017-08-02T13:20:51.612Z,9464
2017-08-02T13:21:52.057Z,9032
2017-08-02T13:22:52.483Z,8400
2017-08-02T13:23:52.926Z,8036
2017-08-02T13:24:53.284Z,8160
2017-08-02T13:25:53.325Z,8284
2017-08-02T13:26:53.358Z,8256
2017-08-02T13:27:53.137Z,8328
2017-08-02T13:28:53.896Z,8848
2017-08-02T13:29:53.596Z,9208
2017-08-02T13:30:53.628Z,9044
2017-08-02T13:31:54.012Z,8852
2017-08-02T13:32:54.048Z,8868